createdAt,value
2022-08-09T00:00:04.941Z,18.64
2022-08-09T00:02:34.120Z,18.59
2022-08-09T00:06:16.476Z,18.72
2022-08-09T00:07:48.433Z,18.36
2022-08-09T00:10:21.185Z,18.28
2022-08-09T00:12:51.673Z,18.37
2022-08-09T00:15:26.448Z,18.44
2022-08-09T00:18:05.885Z,18.43
2022-08-09T00:20:42.354Z,18.59
2022-08-09T00:23:54.724Z,18.48
2022-08-09T00:26:08.026Z,18.66
2022-08-09T00:28:35.178Z,18.59
2022-08-09T00:31:09.282Z,18.63
2022-08-09T00:33:52.011Z,17.99
2022-08-09T00:36:19.883Z,17.94
2022-08-09T00:38:46.539Z,17.81
2022-08-09T00:44:13.010Z,17.66
2022-08-09T00:44:19.801Z,17.74
2022-08-09T00:46:56.986Z,17.50
2022-08-09T00:49:31.296Z,17.54
2022-08-09T00:51:58.758Z,17.61
2022-08-09T00:54:36.366Z,17.68
2022-08-09T00:57:10.263Z,17.60
2022-08-09T00:59:46.642Z,17.54
2022-08-09T01:02:21.469Z,17.54
2022-08-09T01:04:54.118Z,17.53
2022-08-09T01:07:37.570Z,17.54
2022-08-09T01:10:39.446Z,17.93
2022-08-09T01:13:58.816Z,17.97
2022-08-09T01:16:33.149Z,17.90
2022-08-09T01:19:16.780Z,17.67
2022-08-09T01:22:33.240Z,17.63
2022-08-09T01:25:26.712Z,17.28
2022-08-09T01:27:57.035Z,17.58
2022-08-09T01:30:35.383Z,17.68
2022-08-09T01:33:07.641Z,17.83
2022-08-09T01:35:47.366Z,17.69
2022-08-09T01:38:27.578Z,17.51
2022-08-09T01:41:03.089Z,17.79
2022-08-09T01:43:50.577Z,17.87
2022-08-09T01:46:33.443Z,18.01
2022-08-09T01:49:10.677Z,17.81
2022-08-09T01:52:07.876Z,17.81
2022-08-09T01:54:42.194Z,17.91
2022-08-09T01:57:20.791Z,17.80
2022-08-09T01:59:52.666Z,17.95
2022-08-09T02:02:31.061Z,17.82
2022-08-09T02:05:05.410Z,18.01
2022-08-09T02:08:40.764Z,18.12
2022-08-09T02:10:35.554Z,17.88
2022-08-09T02:13:05.259Z,17.77
2022-08-09T02:15:36.202Z,17.84
2022-08-09T02:18:26.945Z,18.00
2022-08-09T02:21:02.885Z,18.03
2022-08-09T02:23:42.918Z,18.05
2022-08-09T02:26:25.304Z,18.04
2022-08-09T02:28:59.674Z,17.99
2022-08-09T02:31:38.795Z,17.96
2022-08-09T02:34:13.299Z,17.79
2022-08-09T02:36:44.586Z,17.65
2022-08-09T02:39:33.722Z,17.61
2022-08-09T02:42:16.737Z,17.71
2022-08-09T02:45:03.049Z,17.60
2022-08-09T02:47:33.920Z,17.63
2022-08-09T02:50:30.222Z,17.61
2022-08-09T02:53:02.669Z,17.67
2022-08-09T02:55:46.103Z,17.57
2022-08-09T02:58:35.413Z,17.65
2022-08-09T03:01:08.085Z,17.49
2022-08-09T03:04:17.416Z,17.41
2022-08-09T03:06:27.850Z,17.42
2022-08-09T03:08:57.147Z,17.31
2022-08-09T03:12:04.295Z,17.39
2022-08-09T03:14:12.830Z,17.36
2022-08-09T03:16:45.157Z,17.39
2022-08-09T03:19:58.405Z,17.36
2022-08-09T03:22:12.478Z,17.24
2022-08-09T03:25:06.707Z,17.35
2022-08-09T03:27:45.062Z,17.47
2022-08-09T03:30:13.523Z,17.09
2022-08-09T03:32:41.601Z,16.97
2022-08-09T03:35:14.973Z,16.94
2022-08-09T03:37:56.376Z,16.92
2022-08-09T03:40:25.313Z,16.93
2022-08-09T03:42:57.466Z,16.96
2022-08-09T03:46:05.089Z,16.81
2022-08-09T03:48:10.981Z,16.61
2022-08-09T03:50:39.892Z,16.56
2022-08-09T03:53:10.788Z,16.46
2022-08-09T03:55:40.988Z,16.29
2022-08-09T03:58:16.339Z,16.42
2022-08-09T04:00:45.708Z,16.44
2022-08-09T04:03:24.610Z,16.50
2022-08-09T04:06:04.587Z,16.41
2022-08-09T04:08:32.148Z,16.70
2022-08-09T04:11:01.636Z,16.72
2022-08-09T04:14:37.484Z,16.52
2022-08-09T04:16:19.690Z,16.55
2022-08-09T04:18:46.908Z,16.80
2022-08-09T04:21:15.825Z,16.70
2022-08-09T04:23:53.760Z,16.35
2022-08-09T04:26:23.298Z,16.38
2022-08-09T04:28:50.374Z,16.57
2022-08-09T04:31:16.908Z,16.74
2022-08-09T04:33:53.019Z,16.60
2022-08-09T04:36:24.830Z,16.65
2022-08-09T04:38:52.455Z,16.39
2022-08-09T04:41:19.346Z,16.23
2022-08-09T04:44:06.491Z,16.35
2022-08-09T04:46:37.641Z,16.59
2022-08-09T04:49:30.274Z,16.59
2022-08-09T04:52:07.882Z,16.80
2022-08-09T04:54:36.673Z,16.88
2022-08-09T04:57:03.765Z,17.07
2022-08-09T04:59:30.787Z,17.21
2022-08-09T05:01:57.310Z,16.98
2022-08-09T05:04:23.883Z,16.91
2022-08-09T05:06:58.412Z,16.83
2022-08-09T05:09:24.963Z,16.77
2022-08-09T05:12:11.076Z,16.78
2022-08-09T05:14:39.022Z,16.70
2022-08-09T05:18:36.924Z,16.87
2022-08-09T05:19:57.125Z,17.01
2022-08-09T05:22:36.272Z,17.13
2022-08-09T05:25:11.717Z,17.08
2022-08-09T05:27:45.341Z,17.35
2022-08-09T05:30:13.848Z,17.61
2022-08-09T05:32:42.061Z,17.63
2022-08-09T05:35:11.229Z,17.91
2022-08-09T05:37:46.381Z,18.04
2022-08-09T05:40:15.138Z,17.91
2022-08-09T05:42:42.782Z,17.69
2022-08-09T05:45:10.955Z,17.40
2022-08-09T05:47:52.545Z,17.71
2022-08-09T05:50:44.024Z,18.01
2022-08-09T05:53:11.758Z,18.23
2022-08-09T05:55:57.970Z,18.25
2022-08-09T05:58:24.507Z,18.26
2022-08-09T06:00:51.017Z,18.16
2022-08-09T06:03:19.906Z,18.15
2022-08-09T06:05:57.818Z,18.58
2022-08-09T06:08:32.620Z,18.33
2022-08-09T06:10:59.341Z,18.54
2022-08-09T06:13:28.242Z,18.47
2022-08-09T06:15:55.269Z,18.27
2022-08-09T06:18:25.433Z,18.50
2022-08-09T06:20:57.034Z,18.48
2022-08-09T06:23:58.952Z,18.39
2022-08-09T06:26:15.069Z,18.49
2022-08-09T06:28:47.173Z,18.52
2022-08-09T06:31:13.656Z,19.06
2022-08-09T06:33:42.065Z,18.64
2022-08-09T06:36:15.366Z,18.58
2022-08-09T06:38:50.005Z,18.41
2022-08-09T06:41:18.778Z,18.64
2022-08-09T06:43:47.098Z,18.80
2022-08-09T06:46:39.058Z,18.75
2022-08-09T06:49:00.782Z,19.16
2022-08-09T06:51:28.156Z,19.29
2022-08-09T06:53:55.162Z,19.21
2022-08-09T06:56:21.924Z,19.29
2022-08-09T07:00:51.425Z,19.68
2022-08-09T07:01:54.255Z,19.70
2022-08-09T07:04:27.043Z,19.82
2022-08-09T07:07:00.728Z,19.79
2022-08-09T07:09:57.344Z,20.16
2022-08-09T07:12:38.538Z,20.26
2022-08-09T07:16:34.927Z,20.43
2022-08-09T07:18:01.926Z,20.30
2022-08-09T07:20:29.235Z,20.62
2022-08-09T07:22:55.962Z,20.73
2022-08-09T07:25:25.017Z,20.74
2022-08-09T07:27:53.673Z,20.70
2022-08-09T07:30:25.268Z,20.56
2022-08-09T07:32:52.476Z,20.75
2022-08-09T07:35:19.290Z,21.09
2022-08-09T07:37:47.899Z,21.27
2022-08-09T07:40:20.578Z,21.05
2022-08-09T07:43:16.394Z,20.55
2022-08-09T07:45:44.489Z,20.96
2022-08-09T07:48:28.704Z,21.14
2022-08-09T07:51:10.074Z,21.24
2022-08-09T07:54:07.009Z,21.31
2022-08-09T07:56:38.968Z,21.41
2022-08-09T07:59:25.450Z,21.51
2022-08-09T08:02:01.935Z,21.63
2022-08-09T08:04:32.245Z,21.84
2022-08-09T08:07:15.319Z,21.89
2022-08-09T08:10:05.776Z,22.02
2022-08-09T08:12:43.464Z,21.86
2022-08-09T08:15:16.705Z,21.74
2022-08-09T08:17:54.170Z,21.88
2022-08-09T08:20:28.747Z,21.52
2022-08-09T08:22:58.717Z,21.56
2022-08-09T08:25:44.166Z,21.90
2022-08-09T08:28:14.472Z,21.86
2022-08-09T08:30:43.186Z,21.98
2022-08-09T08:33:11.843Z,22.35
2022-08-09T08:35:59.708Z,22.41
2022-08-09T08:38:28.469Z,22.20
2022-08-09T08:40:57.124Z,22.23
2022-08-09T08:43:26.515Z,22.31
2022-08-09T08:46:25.024Z,22.47
2022-08-09T08:48:51.091Z,22.50
2022-08-09T08:51:18.942Z,22.89
2022-08-09T08:54:03.947Z,23.04
2022-08-09T08:56:37.736Z,22.90
2022-08-09T08:59:19.427Z,22.88
2022-08-09T09:01:53.172Z,23.17
2022-08-09T09:04:27.692Z,23.33
2022-08-09T09:06:58.113Z,23.49
2022-08-09T09:09:41.170Z,23.54
2022-08-09T09:12:19.465Z,23.56
2022-08-09T09:14:49.737Z,23.61
2022-08-09T09:17:18.629Z,23.47
2022-08-09T09:19:47.758Z,23.74
2022-08-09T09:22:16.993Z,23.86
2022-08-09T09:25:00.875Z,23.94
2022-08-09T09:28:06.277Z,24.12
2022-08-09T09:30:44.319Z,24.18
2022-08-09T09:33:17.494Z,24.28
2022-08-09T09:36:01.470Z,24.22
2022-08-09T09:38:39.456Z,24.19
2022-08-09T09:41:07.298Z,24.13
2022-08-09T09:43:41.591Z,23.81
2022-08-09T09:46:39.584Z,23.97
2022-08-09T09:49:13.185Z,23.93
2022-08-09T09:51:41.402Z,24.30
2022-08-09T09:54:20.490Z,24.62
2022-08-09T09:56:53.384Z,25.14
2022-08-09T09:59:36.242Z,24.84
2022-08-09T10:02:02.742Z,24.65
2022-08-09T10:04:30.913Z,24.49
2022-08-09T10:06:58.150Z,24.62
2022-08-09T10:09:25.478Z,24.67
2022-08-09T10:12:15.002Z,24.47
2022-08-09T10:14:49.993Z,24.58
2022-08-09T10:17:39.610Z,24.81
2022-08-09T10:20:35.672Z,24.81
2022-08-09T10:23:22.024Z,24.90
2022-08-09T10:26:06.688Z,24.91
2022-08-09T10:28:38.499Z,25.16
2022-08-09T10:34:10.068Z,25.30
2022-08-09T10:36:43.079Z,25.21
2022-08-09T10:39:13.843Z,25.25
2022-08-09T10:41:42.827Z,25.46
2022-08-09T10:44:10.275Z,25.64
2022-08-09T10:46:55.124Z,25.55
2022-08-09T10:49:50.150Z,25.88
2022-08-09T10:52:43.025Z,26.00
2022-08-09T10:55:26.737Z,25.87
2022-08-09T10:58:00.514Z,25.88
2022-08-09T11:03:06.450Z,26.04
2022-08-09T11:03:50.366Z,25.76
2022-08-09T11:06:16.740Z,25.95
2022-08-09T11:08:51.293Z,25.68
2022-08-09T11:11:20.982Z,26.03
2022-08-09T11:14:28.355Z,26.15
2022-08-09T11:16:57.043Z,26.23
2022-08-09T11:20:10.670Z,26.27
2022-08-09T11:22:40.573Z,25.59
2022-08-09T11:25:12.277Z,26.27
2022-08-09T11:28:02.530Z,26.53
2022-08-09T11:30:33.275Z,26.64
2022-08-09T11:33:01.362Z,27.16
2022-08-09T11:35:49.909Z,27.25
2022-08-09T11:38:28.651Z,27.12
2022-08-09T11:41:37.855Z,26.90
2022-08-09T11:44:07.931Z,26.19
2022-08-09T11:46:54.946Z,26.76
2022-08-09T11:50:55.787Z,26.38
2022-08-09T11:53:21.497Z,26.66
2022-08-09T11:55:52.298Z,26.64
2022-08-09T11:58:32.278Z,27.13
2022-08-09T12:01:08.891Z,26.94
2022-08-09T12:04:00.643Z,26.83
2022-08-09T12:06:32.579Z,27.10
2022-08-09T12:09:19.495Z,26.95
2022-08-09T12:12:03.580Z,27.31
2022-08-09T12:14:40.851Z,27.28
2022-08-09T12:17:34.373Z,27.49
2022-08-09T12:20:16.573Z,27.72
2022-08-09T12:22:50.248Z,27.58
2022-08-09T12:25:31.978Z,27.73
2022-08-09T12:29:15.614Z,27.90
2022-08-09T12:31:31.229Z,28.08
2022-08-09T12:34:11.074Z,27.75
2022-08-09T12:36:59.050Z,27.40
2022-08-09T12:39:37.800Z,27.71
2022-08-09T12:42:09.119Z,27.73
2022-08-09T12:44:38.205Z,28.58
2022-08-09T12:47:09.898Z,28.03
2022-08-09T12:49:39.525Z,28.27
2022-08-09T12:52:17.875Z,28.01
2022-08-09T12:56:11.435Z,27.98
2022-08-09T12:57:43.374Z,27.65
2022-08-09T13:00:35.300Z,28.41
2022-08-09T13:03:05.089Z,27.60
2022-08-09T13:05:52.530Z,27.19
2022-08-09T13:08:41.006Z,28.05
2022-08-09T13:11:22.936Z,28.29
2022-08-09T13:14:42.268Z,28.74
2022-08-09T13:16:50.785Z,28.92
2022-08-09T13:20:09.096Z,29.13
2022-08-09T13:22:37.023Z,29.19
2022-08-09T13:25:13.991Z,29.24
2022-08-09T13:27:55.206Z,28.42
2022-08-09T13:30:48.706Z,28.01
2022-08-09T13:33:11.613Z,27.65
2022-08-09T13:36:38.004Z,28.00
2022-08-09T13:38:57.535Z,28.12
2022-08-09T13:41:57.992Z,29.20
2022-08-09T13:44:13.737Z,30.03
2022-08-09T13:47:26.575Z,29.92
2022-08-09T13:49:37.880Z,28.90
2022-08-09T13:52:09.192Z,28.95
2022-08-09T13:54:36.614Z,28.55
2022-08-09T13:57:14.543Z,28.32
2022-08-09T13:59:58.160Z,28.56
2022-08-09T14:02:26.146Z,28.84
2022-08-09T14:04:59.375Z,28.21
2022-08-09T14:07:30.181Z,28.80
2022-08-09T14:10:09.250Z,28.93
2022-08-09T14:12:44.356Z,28.57
2022-08-09T14:16:07.099Z,28.78
2022-08-09T14:18:06.425Z,29.23
2022-08-09T14:20:44.126Z,28.88
2022-08-09T14:23:20.270Z,28.84
2022-08-09T14:26:01.513Z,29.32
2022-08-09T14:28:32.275Z,29.71
2022-08-09T14:30:58.767Z,30.28
2022-08-09T14:33:25.238Z,30.06
2022-08-09T14:35:53.499Z,29.72
2022-08-09T14:38:20.088Z,29.50
2022-08-09T14:41:04.203Z,28.87
2022-08-09T14:43:53.213Z,29.01
2022-08-09T14:46:55.972Z,29.10
2022-08-09T14:49:06.144Z,29.07
2022-08-09T14:51:42.191Z,28.85
2022-08-09T14:54:09.582Z,28.45
2022-08-09T14:56:57.637Z,28.64
2022-08-09T14:59:23.565Z,28.53
2022-08-09T15:01:50.457Z,28.70
2022-08-09T15:04:16.996Z,28.77
2022-08-09T15:06:43.478Z,29.06
2022-08-09T15:09:16.774Z,28.53
2022-08-09T15:12:04.529Z,28.96
2022-08-09T15:14:34.426Z,29.23
2022-08-09T15:17:04.851Z,29.08
2022-08-09T15:19:36.195Z,29.28
2022-08-09T15:22:03.657Z,28.93
2022-08-09T15:24:31.267Z,28.44
2022-08-09T15:26:59.869Z,28.41
2022-08-09T15:30:56.022Z,28.46
2022-08-09T15:32:39.057Z,28.10
2022-08-09T15:35:40.266Z,28.14
2022-08-09T15:37:57.012Z,28.43
2022-08-09T15:40:43.918Z,27.80
2022-08-09T15:43:13.687Z,27.87
2022-08-09T15:45:52.066Z,28.17
2022-08-09T15:48:28.553Z,28.24
2022-08-09T15:50:57.756Z,28.48
2022-08-09T15:54:05.417Z,27.37
2022-08-09T15:56:21.650Z,27.65
2022-08-09T15:58:58.891Z,28.14
2022-08-09T16:01:25.850Z,28.10
2022-08-09T16:03:52.382Z,28.44
2022-08-09T16:06:29.494Z,28.09
2022-08-09T16:09:03.432Z,28.09
2022-08-09T16:11:33.099Z,28.22
2022-08-09T16:14:03.450Z,28.51
2022-08-09T16:16:34.775Z,28.41
2022-08-09T16:19:04.827Z,27.71
2022-08-09T16:21:34.979Z,27.97
2022-08-09T16:24:03.031Z,27.86
2022-08-09T16:26:34.778Z,27.62
2022-08-09T16:29:11.698Z,27.87
2022-08-09T16:32:19.048Z,27.64
2022-08-09T16:34:55.545Z,27.83
2022-08-09T16:37:54.916Z,28.25
2022-08-09T16:40:10.070Z,27.80
2022-08-09T16:42:37.161Z,27.82
2022-08-09T16:45:06.307Z,27.34
2022-08-09T16:48:42.503Z,27.55
2022-08-09T16:50:32.337Z,27.91
2022-08-09T16:53:02.649Z,27.66
2022-08-09T16:55:44.425Z,27.56
2022-08-09T16:58:16.880Z,27.79
2022-08-09T17:00:43.740Z,27.28
2022-08-09T17:03:21.892Z,27.43
2022-08-09T17:06:08.640Z,27.27
2022-08-09T17:09:02.795Z,27.45
2022-08-09T17:11:39.967Z,27.48
2022-08-09T17:14:25.358Z,27.50
2022-08-09T17:16:59.758Z,27.29
2022-08-09T17:20:05.914Z,27.51
2022-08-09T17:22:24.991Z,27.24
2022-08-09T17:25:03.216Z,27.48
2022-08-09T17:27:32.268Z,27.35
2022-08-09T17:29:58.806Z,27.48
2022-08-09T17:32:26.657Z,27.42
2022-08-09T17:35:11.750Z,27.18
2022-08-09T17:38:11.282Z,27.02
2022-08-09T17:40:28.670Z,27.03
2022-08-09T17:42:59.756Z,26.80
2022-08-09T17:46:03.415Z,26.93
2022-08-09T17:48:29.162Z,26.80
2022-08-09T17:51:01.717Z,26.66
2022-08-09T17:53:35.674Z,26.62
2022-08-09T17:56:10.026Z,26.79
2022-08-09T17:58:36.499Z,27.10
2022-08-09T18:01:03.165Z,26.97
2022-08-09T18:03:31.737Z,26.60
2022-08-09T18:06:00.987Z,26.90
2022-08-09T18:08:28.599Z,26.82
2022-08-09T18:11:01.647Z,26.80
2022-08-09T18:13:43.253Z,26.70
2022-08-09T18:16:17.169Z,26.70
2022-08-09T18:18:56.253Z,26.60
2022-08-09T18:21:24.415Z,26.49
2022-08-09T18:24:11.324Z,26.58
2022-08-09T18:26:46.776Z,26.39
2022-08-09T18:30:35.097Z,26.31
2022-08-09T18:32:03.745Z,26.21
2022-08-09T18:34:34.889Z,26.29
2022-08-09T18:37:04.647Z,25.91
2022-08-09T18:39:39.552Z,26.05
2022-08-09T18:42:09.101Z,26.16
2022-08-09T18:44:35.745Z,25.85
2022-08-09T18:47:07.337Z,26.04
2022-08-09T18:49:43.020Z,26.13
2022-08-09T18:52:13.868Z,26.29
2022-08-09T18:54:49.604Z,26.08
2022-08-09T18:57:19.804Z,25.98
2022-08-09T18:59:54.334Z,25.70
2022-08-09T19:02:32.314Z,25.77
2022-08-09T19:05:20.181Z,25.35
2022-08-09T19:07:59.021Z,25.24
2022-08-09T19:10:26.720Z,24.90
2022-08-09T19:13:18.003Z,24.93
2022-08-09T19:15:40.360Z,24.56
2022-08-09T19:18:17.257Z,24.43
2022-08-09T19:20:56.990Z,24.28
2022-08-09T19:24:32.452Z,24.38
2022-08-09T19:26:13.643Z,24.41
2022-08-09T19:28:48.598Z,24.50
2022-08-09T19:31:16.763Z,24.31
2022-08-09T19:33:43.639Z,24.38
2022-08-09T19:36:13.270Z,24.04
2022-08-09T19:38:40.518Z,23.81
2022-08-09T19:41:10.187Z,24.02
2022-08-09T19:44:01.304Z,24.16
2022-08-09T19:46:34.435Z,23.87
2022-08-09T19:50:09.150Z,23.56
2022-08-09T19:51:55.908Z,23.82
2022-08-09T19:54:26.958Z,23.81
2022-08-09T19:56:54.633Z,23.53
2022-08-09T19:59:58.413Z,23.43
2022-08-09T20:02:17.089Z,23.67
2022-08-09T20:04:57.872Z,23.50
2022-08-09T20:07:33.792Z,23.66
2022-08-09T20:10:22.147Z,23.46
2022-08-09T20:12:55.653Z,23.35
2022-08-09T20:16:36.942Z,23.55
2022-08-09T20:18:22.662Z,23.51
2022-08-09T20:20:54.280Z,23.65
2022-08-09T20:23:39.833Z,23.76
2022-08-09T20:26:17.644Z,23.54
2022-08-09T20:29:18.868Z,23.35
2022-08-09T20:32:28.705Z,23.08
2022-08-09T20:34:53.972Z,22.38
2022-08-09T20:38:19.076Z,22.93
2022-08-09T20:40:35.572Z,22.94
2022-08-09T20:43:19.216Z,22.63
2022-08-09T20:46:02.031Z,22.60
2022-08-09T20:48:50.879Z,22.98
2022-08-09T20:51:25.826Z,22.79
2022-08-09T20:53:56.993Z,22.68
2022-08-09T20:56:26.111Z,22.67
2022-08-09T20:58:59.246Z,22.66
2022-08-09T21:05:51.829Z,22.44
2022-08-09T21:07:20.203Z,22.48
2022-08-09T21:09:58.344Z,22.24
2022-08-09T21:15:17.069Z,22.42
2022-08-09T21:18:11.730Z,22.13
2022-08-09T21:20:32.259Z,21.92
2022-08-09T21:23:00.462Z,22.20
2022-08-09T21:25:56.527Z,22.04
2022-08-09T21:28:34.417Z,21.80
2022-08-09T21:31:18.032Z,21.77
2022-08-09T21:33:50.649Z,21.84
2022-08-09T21:36:18.910Z,21.94
2022-08-09T21:38:45.632Z,22.12
2022-08-09T21:41:17.780Z,21.49
2022-08-09T21:43:56.130Z,21.57
2022-08-09T21:46:24.885Z,21.61
2022-08-09T21:48:52.091Z,21.61
2022-08-09T21:51:24.053Z,21.45
2022-08-09T21:53:55.081Z,21.68
2022-08-09T21:56:43.024Z,21.74
2022-08-09T21:59:09.210Z,21.53
2022-08-09T22:01:59.431Z,21.42
2022-08-09T22:04:37.566Z,21.22
2022-08-09T22:07:10.043Z,21.24
2022-08-09T22:09:40.846Z,21.27
2022-08-09T22:12:18.933Z,20.99
2022-08-09T22:14:56.651Z,21.32
2022-08-09T22:17:24.080Z,20.98
2022-08-09T22:19:58.896Z,21.21
2022-08-09T22:22:28.162Z,21.27
2022-08-09T22:26:07.584Z,21.36
2022-08-09T22:27:41.198Z,20.95
2022-08-09T22:30:09.761Z,20.94
2022-08-09T22:32:37.583Z,20.93
2022-08-09T22:35:59.963Z,20.95
2022-08-09T22:38:03.309Z,20.89
2022-08-09T22:40:34.409Z,20.88
2022-08-09T22:43:00.952Z,20.65
2022-08-09T22:48:18.406Z,20.63
2022-08-09T22:48:34.629Z,20.64
2022-08-09T22:51:10.680Z,20.64
2022-08-09T22:53:58.569Z,20.57
2022-08-09T22:56:34.290Z,20.42
2022-08-09T22:59:05.990Z,20.33
2022-08-09T23:01:49.421Z,20.36
2022-08-09T23:04:17.256Z,20.32
2022-08-09T23:07:02.419Z,20.47
2022-08-09T23:09:28.938Z,20.55
2022-08-09T23:11:55.651Z,20.67
2022-08-09T23:14:37.388Z,20.47
2022-08-09T23:17:08.680Z,20.44
2022-08-09T23:20:00.703Z,20.37
2022-08-09T23:22:21.695Z,20.58
2022-08-09T23:24:48.832Z,20.57
2022-08-09T23:27:15.903Z,20.67
2022-08-09T23:29:42.500Z,20.71
2022-08-09T23:32:09.276Z,20.67
2022-08-09T23:34:36.687Z,20.62
2022-08-09T23:37:04.402Z,20.66
2022-08-09T23:39:31.582Z,20.34
2022-08-09T23:41:58.375Z,20.25
2022-08-09T23:44:24.908Z,20.21
2022-08-09T23:46:52.901Z,20.33
2022-08-09T23:49:25.494Z,20.48
2022-08-09T23:51:52.734Z,20.43
2022-08-09T23:54:19.705Z,20.00
2022-08-09T23:56:54.683Z,20.36
2022-08-09T23:59:23.499Z,20.47
